sensor_id;sensor_type;location;lat;lon;timestamp;pressure;altitude;pressure_sealevel;temperature;humidity
9281;BME280;4679;47.966;7.958;2023-07-30T07:42:14;97030.59;;;21.49;67.16
9281;BME280;4679;47.966;7.958;2023-07-30T07:44:16;97040.78;;;21.52;67.18
9281;BME280;4679;47.966;7.958;2023-07-30T07:46:18;97029.97;;;21.52;67.23
9281;BME280;4679;47.966;7.958;2023-07-30T07:48:19;97031.09;;;21.51;66.96
9281;BME280;4679;47.966;7.958;2023-07-30T07:50:20;97032.50;;;21.49;66.98
9281;BME280;4679;47.966;7.958;2023-07-30T07:52:22;97041.88;;;21.60;66.73
9281;BME280;4679;47.966;7.958;2023-07-30T07:54:23;97040.63;;;21.74;66.47
9281;BME280;4679;47.966;7.958;2023-07-30T07:56:25;97036.03;;;21.84;66.12
9281;BME280;4679;47.966;7.958;2023-07-30T07:58:28;97029.50;;;22.02;65.83
9281;BME280;4679;47.966;7.958;2023-07-30T08:00:29;97043.00;;;22.19;65.77
9281;BME280;4679;47.966;7.958;2023-07-30T08:02:31;97030.78;;;22.30;65.21
9281;BME280;4679;47.966;7.958;2023-07-30T08:04:33;97044.28;;;22.30;65.49
9281;BME280;4679;47.966;7.958;2023-07-30T08:06:34;97047.44;;;22.32;65.51
9281;BME280;4679;47.966;7.958;2023-07-30T08:08:37;97044.13;;;22.27;65.55
9281;BME280;4679;47.966;7.958;2023-07-30T08:10:38;97051.31;;;22.14;65.49
9281;BME280;4679;47.966;7.958;2023-07-30T08:12:43;97047.16;;;22.25;64.98
9281;BME280;4679;47.966;7.958;2023-07-30T08:14:46;97046.16;;;22.38;64.70
9281;BME280;4679;47.966;7.958;2023-07-30T08:16:47;97046.81;;;22.35;64.33
9281;BME280;4679;47.966;7.958;2023-07-30T08:18:49;97051.91;;;22.45;64.29
9281;BME280;4679;47.966;7.958;2023-07-30T08:20:50;97051.81;;;22.63;63.81
9281;BME280;4679;47.966;7.958;2023-07-30T08:22:52;97055.78;;;22.74;63.31
9281;BME280;4679;47.966;7.958;2023-07-30T08:24:54;97057.22;;;22.80;63.22
9281;BME280;4679;47.966;7.958;2023-07-30T08:26:54;97072.66;;;22.79;63.04
9281;BME280;4679;47.966;7.958;2023-07-30T08:28:56;97065.03;;;22.64;63.18
9281;BME280;4679;47.966;7.958;2023-07-30T08:31:01;97061.19;;;22.74;63.12
9281;BME280;4679;47.966;7.958;2023-07-30T08:33:03;97060.34;;;22.99;62.53
9281;BME280;4679;47.966;7.958;2023-07-30T08:35:06;97060.13;;;23.13;61.91
9281;BME280;4679;47.966;7.958;2023-07-30T08:37:07;97066.50;;;23.08;62.16
9281;BME280;4679;47.966;7.958;2023-07-30T08:39:08;97056.38;;;22.97;62.41
9281;BME280;4679;47.966;7.958;2023-07-30T08:41:10;97056.22;;;22.93;62.13
9281;BME280;4679;47.966;7.958;2023-07-30T08:43:12;97053.69;;;22.88;62.06
9281;BME280;4679;47.966;7.958;2023-07-30T08:45:15;97055.78;;;22.74;62.29
9281;BME280;4679;47.966;7.958;2023-07-30T08:47:19;97063.88;;;22.91;62.08
9281;BME280;4679;47.966;7.958;2023-07-30T08:49:20;97070.53;;;23.02;61.41
9281;BME280;4679;47.966;7.958;2023-07-30T08:51:22;97070.78;;;23.09;61.58
9281;BME280;4679;47.966;7.958;2023-07-30T08:53:25;97058.75;;;23.28;60.78
9281;BME280;4679;47.966;7.958;2023-07-30T08:55:27;97074.97;;;23.36;60.58
9281;BME280;4679;47.966;7.958;2023-07-30T08:57:30;97081.84;;;23.34;60.68
9281;BME280;4679;47.966;7.958;2023-07-30T08:59:39;97083.84;;;23.45;59.99
9281;BME280;4679;47.966;7.958;2023-07-30T09:01:44;97074.75;;;23.50;60.15
9281;BME280;4679;47.966;7.958;2023-07-30T09:03:48;97083.94;;;23.28;60.32
9281;BME280;4679;47.966;7.958;2023-07-30T09:05:51;97089.34;;;23.28;60.44
9281;BME280;4679;47.966;7.958;2023-07-30T09:07:53;97085.38;;;23.26;60.48
9281;BME280;4679;47.966;7.958;2023-07-30T09:09:54;97088.03;;;22.96;60.86
9281;BME280;4679;47.966;7.958;2023-07-30T09:11:56;97091.84;;;23.04;60.80
9281;BME280;4679;47.966;7.958;2023-07-30T09:14:01;97092.19;;;23.02;60.72
9281;BME280;4679;47.966;7.958;2023-07-30T09:16:08;97110.22;;;22.72;61.02
9281;BME280;4679;47.966;7.958;2023-07-30T09:18:10;97094.31;;;22.71;61.07
9281;BME280;4679;47.966;7.958;2023-07-30T09:20:13;97101.91;;;22.95;60.39
9281;BME280;4679;47.966;7.958;2023-07-30T09:22:19;97103.44;;;23.13;59.77
9281;BME280;4679;47.966;7.958;2023-07-30T09:24:22;97111.56;;;23.13;59.89
9281;BME280;4679;47.966;7.958;2023-07-30T09:26:23;97109.47;;;23.19;59.51
9281;BME280;4679;47.966;7.958;2023-07-30T09:28:30;97107.56;;;23.10;59.81
9281;BME280;4679;47.966;7.958;2023-07-30T09:30:32;97114.94;;;22.93;59.95
9281;BME280;4679;47.966;7.958;2023-07-30T09:32:34;97116.06;;;22.92;59.93
9281;BME280;4679;47.966;7.958;2023-07-30T09:34:44;97112.25;;;22.93;59.80
9281;BME280;4679;47.966;7.958;2023-07-30T09:36:47;97107.69;;;22.76;60.04
9281;BME280;4679;47.966;7.958;2023-07-30T09:38:49;97103.69;;;22.82;59.79
9281;BME280;4679;47.966;7.958;2023-07-30T09:40:51;97116.16;;;23.12;59.08
9281;BME280;4679;47.966;7.958;2023-07-30T09:42:52;97111.91;;;23.03;59.34
9281;BME280;4679;47.966;7.958;2023-07-30T09:44:58;97111.81;;;22.82;59.39
9281;BME280;4679;47.966;7.958;2023-07-30T09:47:00;97110.28;;;23.10;58.75
9281;BME280;4679;47.966;7.958;2023-07-30T09:49:05;97117.03;;;23.34;58.23
9281;BME280;4679;47.966;7.958;2023-07-30T09:51:08;97114.44;;;23.46;57.51
9281;BME280;4679;47.966;7.958;2023-07-30T09:53:13;97109.13;;;23.58;57.45
9281;BME280;4679;47.966;7.958;2023-07-30T09:55:16;97111.81;;;23.88;56.93
9281;BME280;4679;47.966;7.958;2023-07-30T09:57:19;97111.63;;;23.93;56.69
9281;BME280;4679;47.966;7.958;2023-07-30T09:59:20;97102.41;;;23.85;56.99
9281;BME280;4679;47.966;7.958;2023-07-30T10:01:23;97101.84;;;23.79;56.88
9281;BME280;4679;47.966;7.958;2023-07-30T10:03:26;97107.78;;;23.94;56.32
9281;BME280;4679;47.966;7.958;2023-07-30T10:05:32;97106.78;;;23.77;56.48
9281;BME280;4679;47.966;7.958;2023-07-30T10:07:35;97116.59;;;23.61;56.43
9281;BME280;4679;47.966;7.958;2023-07-30T10:09:41;97108.03;;;23.50;56.30
9281;BME280;4679;47.966;7.958;2023-07-30T10:11:45;97116.50;;;23.78;55.67
9281;BME280;4679;47.966;7.958;2023-07-30T10:13:48;97116.13;;;23.89;55.16
9281;BME280;4679;47.966;7.958;2023-07-30T10:15:50;97111.03;;;24.08;54.77
9281;BME280;4679;47.966;7.958;2023-07-30T10:17:56;97110.59;;;24.27;54.24
9281;BME280;4679;47.966;7.958;2023-07-30T10:20:17;97118.50;;;24.32;54.06
9281;BME280;4679;47.966;7.958;2023-07-30T10:22:22;97123.47;;;24.30;53.88
9281;BME280;4679;47.966;7.958;2023-07-30T10:24:25;97119.06;;;24.25;53.98
9281;BME280;4679;47.966;7.958;2023-07-30T10:26:30;97114.75;;;24.24;53.86
9281;BME280;4679;47.966;7.958;2023-07-30T10:28:32;97101.34;;;24.28;53.70
9281;BME280;4679;47.966;7.958;2023-07-30T10:30:34;97118.69;;;24.47;53.52
9281;BME280;4679;47.966;7.958;2023-07-30T10:32:39;97125.09;;;24.64;53.05
9281;BME280;4679;47.966;7.958;2023-07-30T10:34:44;97120.13;;;24.66;53.00
9281;BME280;4679;47.966;7.958;2023-07-30T10:36:49;97118.13;;;24.75;52.64
9281;BME280;4679;47.966;7.958;2023-07-30T10:38:51;97115.06;;;24.76;52.28
9281;BME280;4679;47.966;7.958;2023-07-30T10:41:04;97121.97;;;24.74;52.41
9281;BME280;4679;47.966;7.958;2023-07-30T10:43:15;97113.09;;;24.65;52.75
9281;BME280;4679;47.966;7.958;2023-07-30T10:45:18;97122.16;;;24.69;52.76
9281;BME280;4679;47.966;7.958;2023-07-30T10:47:19;97117.69;;;24.85;52.52
9281;BME280;4679;47.966;7.958;2023-07-30T10:49:21;97104.66;;;24.78;52.12
9281;BME280;4679;47.966;7.958;2023-07-30T10:51:23;97116.25;;;24.87;52.21
9281;BME280;4679;47.966;7.958;2023-07-30T10:53:26;97103.16;;;25.02;52.06
9281;BME280;4679;47.966;7.958;2023-07-30T10:55:29;97111.00;;;25.15;51.87
9281;BME280;4679;47.966;7.958;2023-07-30T10:57:31;97114.63;;;25.19;51.71
9281;BME280;4679;47.966;7.958;2023-07-30T10:59:35;97113.25;;;25.13;51.89
9281;BME280;4679;47.966;7.958;2023-07-30T11:01:38;97115.72;;;25.06;51.67
9281;BME280;4679;47.966;7.958;2023-07-30T11:03:40;97117.09;;;25.24;51.28
9281;BME280;4679;47.966;7.958;2023-07-30T11:05:41;97114.50;;;25.28;51.42
9281;BME280;4679;47.966;7.958;2023-07-30T11:07:49;97110.31;;;25.18;51.07
9281;BME280;4679;47.966;7.958;2023-07-30T11:10:00;97123.56;;;24.75;52.41
9281;BME280;4679;47.966;7.958;2023-07-30T11:12:03;97125.97;;;24.56;51.91
9281;BME280;4679;47.966;7.958;2023-07-30T11:14:05;97118.59;;;24.44;52.27
9281;BME280;4679;47.966;7.958;2023-07-30T11:16:08;97116.59;;;24.32;52.57
9281;BME280;4679;47.966;7.958;2023-07-30T11:18:09;97114.94;;;24.19;52.65
9281;BME280;4679;47.966;7.958;2023-07-30T11:20:22;97106.94;;;24.02;52.63
9281;BME280;4679;47.966;7.958;2023-07-30T11:22:30;97104.53;;;24.00;52.84
9281;BME280;4679;47.966;7.958;2023-07-30T11:24:35;97116.78;;;24.06;52.39
9281;BME280;4679;47.966;7.958;2023-07-30T11:26:37;97114.22;;;24.10;52.41
9281;BME280;4679;47.966;7.958;2023-07-30T11:28:40;97101.44;;;23.90;52.68
9281;BME280;4679;47.966;7.958;2023-07-30T11:30:42;97102.03;;;24.16;52.05
9281;BME280;4679;47.966;7.958;2023-07-30T11:32:45;97115.00;;;24.31;51.79
9281;BME280;4679;47.966;7.958;2023-07-30T11:34:46;97104.38;;;24.26;51.88
9281;BME280;4679;47.966;7.958;2023-07-30T11:36:48;97104.63;;;24.33;51.64
9281;BME280;4679;47.966;7.958;2023-07-30T11:38:51;97104.50;;;24.63;50.86
9281;BME280;4679;47.966;7.958;2023-07-30T11:40:54;97115.50;;;24.99;50.23
9281;BME280;4679;47.966;7.958;2023-07-30T11:42:56;97115.84;;;25.10;50.00
9281;BME280;4679;47.966;7.958;2023-07-30T11:44:58;97113.47;;;25.08;50.08
9281;BME280;4679;47.966;7.958;2023-07-30T11:47:00;97123.91;;;24.73;50.33
9281;BME280;4679;47.966;7.958;2023-07-30T11:49:14;97124.00;;;24.77;50.42
9281;BME280;4679;47.966;7.958;2023-07-30T11:51:21;97132.44;;;24.96;49.71
9281;BME280;4679;47.966;7.958;2023-07-30T11:53:43;97117.56;;;25.39;49.57
9281;BME280;4679;47.966;7.958;2023-07-30T11:55:46;97124.78;;;25.22;49.16
9281;BME280;4679;47.966;7.958;2023-07-30T11:57:48;97119.81;;;25.12;49.47
9281;BME280;4679;47.966;7.958;2023-07-30T11:59:49;97113.25;;;25.01;49.92
9281;BME280;4679;47.966;7.958;2023-07-30T12:01:51;97113.72;;;25.28;49.42
9281;BME280;4679;47.966;7.958;2023-07-30T12:03:54;97120.47;;;25.09;49.61
9281;BME280;4679;47.966;7.958;2023-07-30T12:05:56;97125.25;;;24.79;50.04
9281;BME280;4679;47.966;7.958;2023-07-30T12:07:57;97135.47;;;24.62;50.18
9281;BME280;4679;47.966;7.958;2023-07-30T12:10:09;97125.63;;;24.24;51.02
9281;BME280;4679;47.966;7.958;2023-07-30T12:12:12;97135.19;;;24.42;50.54
9281;BME280;4679;47.966;7.958;2023-07-30T12:14:14;97135.16;;;24.01;51.17
9281;BME280;4679;47.966;7.958;2023-07-30T12:16:16;97124.22;;;23.68;51.77
9281;BME280;4679;47.966;7.958;2023-07-30T12:18:18;97116.50;;;24.20;50.71
9281;BME280;4679;47.966;7.958;2023-07-30T12:20:20;97111.16;;;24.53;50.05
9281;BME280;4679;47.966;7.958;2023-07-30T12:22:21;97132.16;;;24.44;50.22
9281;BME280;4679;47.966;7.958;2023-07-30T12:24:23;97107.78;;;24.35;50.53
9281;BME280;4679;47.966;7.958;2023-07-30T12:26:25;97114.03;;;24.36;50.54
9281;BME280;4679;47.966;7.958;2023-07-30T12:28:28;97118.16;;;24.87;49.70
9281;BME280;4679;47.966;7.958;2023-07-30T12:30:29;97113.25;;;25.26;49.19
9281;BME280;4679;47.966;7.958;2023-07-30T12:32:31;97120.25;;;25.14;49.19
9281;BME280;4679;47.966;7.958;2023-07-30T12:34:33;97110.75;;;25.08;49.33
9281;BME280;4679;47.966;7.958;2023-07-30T12:36:34;97129.56;;;25.26;49.04
9281;BME280;4679;47.966;7.958;2023-07-30T12:38:36;97114.03;;;25.38;48.91
9281;BME280;4679;47.966;7.958;2023-07-30T12:40:37;97128.19;;;25.56;48.60
9281;BME280;4679;47.966;7.958;2023-07-30T12:42:39;97120.28;;;25.39;48.68
9281;BME280;4679;47.966;7.958;2023-07-30T12:44:42;97128.44;;;25.51;48.55
9281;BME280;4679;47.966;7.958;2023-07-30T12:46:44;97134.69;;;25.64;48.08
9281;BME280;4679;47.966;7.958;2023-07-30T12:48:45;97131.03;;;25.59;47.90
9281;BME280;4679;47.966;7.958;2023-07-30T12:50:47;97132.53;;;25.81;47.55
9281;BME280;4679;47.966;7.958;2023-07-30T12:52:49;97141.28;;;26.15;47.46
9281;BME280;4679;47.966;7.958;2023-07-30T12:54:50;97144.91;;;26.31;46.69
9281;BME280;4679;47.966;7.958;2023-07-30T12:56:52;97151.69;;;26.37;46.63
9281;BME280;4679;47.966;7.958;2023-07-30T12:58:54;97149.91;;;26.17;47.45
9281;BME280;4679;47.966;7.958;2023-07-30T13:00:57;97135.94;;;25.66;47.92
9281;BME280;4679;47.966;7.958;2023-07-30T13:02:58;97153.25;;;25.86;47.96
9281;BME280;4679;47.966;7.958;2023-07-30T13:05:00;97148.63;;;25.74;47.98
9281;BME280;4679;47.966;7.958;2023-07-30T13:07:02;97155.13;;;25.37;48.42
9281;BME280;4679;47.966;7.958;2023-07-30T13:09:04;97148.69;;;25.41;47.88
9281;BME280;4679;47.966;7.958;2023-07-30T13:11:05;97157.06;;;25.24;48.42
9281;BME280;4679;47.966;7.958;2023-07-30T13:13:07;97162.25;;;24.84;49.23
9281;BME280;4679;47.966;7.958;2023-07-30T13:15:08;97166.06;;;24.50;49.30
9281;BME280;4679;47.966;7.958;2023-07-30T13:17:12;97164.94;;;24.51;49.28
9281;BME280;4679;47.966;7.958;2023-07-30T13:19:13;97164.50;;;24.82;48.60
9281;BME280;4679;47.966;7.958;2023-07-30T13:21:15;97160.53;;;25.12;48.34
9281;BME280;4679;47.966;7.958;2023-07-30T13:23:17;97162.06;;;25.58;47.37
9281;BME280;4679;47.966;7.958;2023-07-30T13:25:18;97169.69;;;25.77;46.98
9281;BME280;4679;47.966;7.958;2023-07-30T13:27:20;97169.34;;;25.91;46.60
9281;BME280;4679;47.966;7.958;2023-07-30T13:29:22;97167.81;;;26.18;45.91
9281;BME280;4679;47.966;7.958;2023-07-30T13:31:23;97170.66;;;26.21;45.70
9281;BME280;4679;47.966;7.958;2023-07-30T13:33:26;97173.72;;;26.20;46.49
9281;BME280;4679;47.966;7.958;2023-07-30T13:35:28;97175.81;;;25.74;46.52
9281;BME280;4679;47.966;7.958;2023-07-30T13:37:29;97185.94;;;25.29;48.00
9281;BME280;4679;47.966;7.958;2023-07-30T13:39:31;97190.09;;;24.93;48.35
9281;BME280;4679;47.966;7.958;2023-07-30T13:41:33;97193.91;;;24.80;48.35
9281;BME280;4679;47.966;7.958;2023-07-30T13:43:34;97194.34;;;25.36;47.78
9281;BME280;4679;47.966;7.958;2023-07-30T13:45:36;97190.19;;;25.87;46.83
9281;BME280;4679;47.966;7.958;2023-07-30T13:47:38;97184.63;;;25.71;47.52
9281;BME280;4679;47.966;7.958;2023-07-30T13:49:42;97183.94;;;25.50;47.67
9281;BME280;4679;47.966;7.958;2023-07-30T13:51:43;97188.84;;;25.23;48.39
9281;BME280;4679;47.966;7.958;2023-07-30T13:53:44;97202.19;;;24.83;49.14
9281;BME280;4679;47.966;7.958;2023-07-30T13:55:46;97191.84;;;24.44;49.58
9281;BME280;4679;47.966;7.958;2023-07-30T13:57:47;97181.44;;;24.25;50.24
9281;BME280;4679;47.966;7.958;2023-07-30T13:59:50;97192.28;;;24.25;50.04
9281;BME280;4679;47.966;7.958;2023-07-30T14:01:52;97204.72;;;23.97;50.66
9281;BME280;4679;47.966;7.958;2023-07-30T14:03:53;97203.41;;;23.73;51.04
9281;BME280;4679;47.966;7.958;2023-07-30T14:05:57;97199.38;;;23.41;51.53
9281;BME280;4679;47.966;7.958;2023-07-30T14:08:00;97211.00;;;23.42;51.66
9281;BME280;4679;47.966;7.958;2023-07-30T14:10:03;97208.25;;;23.59;51.59
9281;BME280;4679;47.966;7.958;2023-07-30T14:12:06;97209.78;;;23.69;51.33
9281;BME280;4679;47.966;7.958;2023-07-30T14:14:08;97207.72;;;23.74;51.27
9281;BME280;4679;47.966;7.958;2023-07-30T14:16:10;97210.59;;;23.69;51.53
9281;BME280;4679;47.966;7.958;2023-07-30T14:18:13;97202.75;;;23.76;51.51
9281;BME280;4679;47.966;7.958;2023-07-30T14:20:16;97210.03;;;23.84;51.40
9281;BME280;4679;47.966;7.958;2023-07-30T14:22:19;97193.69;;;24.02;50.98
9281;BME280;4679;47.966;7.958;2023-07-30T14:24:21;97198.38;;;23.93;51.28
9281;BME280;4679;47.966;7.958;2023-07-30T14:26:23;97198.47;;;23.75;51.41
9281;BME280;4679;47.966;7.958;2023-07-30T14:28:26;97196.13;;;24.24;50.46
9281;BME280;4679;47.966;7.958;2023-07-30T14:30:28;97195.91;;;24.50;50.27
9281;BME280;4679;47.966;7.958;2023-07-30T14:32:30;97200.47;;;24.79;49.83
9281;BME280;4679;47.966;7.958;2023-07-30T14:34:33;97190.63;;;24.74;49.84
9281;BME280;4679;47.966;7.958;2023-07-30T14:36:35;97199.81;;;24.61;50.37
9281;BME280;4679;47.966;7.958;2023-07-30T14:38:37;97204.56;;;24.85;49.63
9281;BME280;4679;47.966;7.958;2023-07-30T14:40:39;97196.94;;;24.99;49.35
9281;BME280;4679;47.966;7.958;2023-07-30T14:42:41;97199.91;;;25.06;49.24
9281;BME280;4679;47.966;7.958;2023-07-30T14:44:43;97197.28;;;24.77;49.79
9281;BME280;4679;47.966;7.958;2023-07-30T14:46:46;97193.34;;;24.53;50.24
9281;BME280;4679;47.966;7.958;2023-07-30T14:48:47;97205.03;;;24.45;50.17
9281;BME280;4679;47.966;7.958;2023-07-30T14:50:49;97199.88;;;24.32;50.28
9281;BME280;4679;47.966;7.958;2023-07-30T14:52:52;97202.19;;;24.21;50.24
9281;BME280;4679;47.966;7.958;2023-07-30T14:54:55;97209.03;;;24.27;50.05
9281;BME280;4679;47.966;7.958;2023-07-30T14:56:57;97218.41;;;24.00;50.30
9281;BME280;4679;47.966;7.958;2023-07-30T14:58:59;97218.94;;;23.56;50.94
9281;BME280;4679;47.966;7.958;2023-07-30T15:01:02;97220.72;;;23.43;51.39
9281;BME280;4679;47.966;7.958;2023-07-30T15:03:04;97220.66;;;23.05;51.66
9281;BME280;4679;47.966;7.958;2023-07-30T15:05:07;97221.63;;;23.00;51.83
9281;BME280;4679;47.966;7.958;2023-07-30T15:07:08;97218.78;;;22.88;51.88
9281;BME280;4679;47.966;7.958;2023-07-30T15:09:10;97217.16;;;22.96;51.78
9281;BME280;4679;47.966;7.958;2023-07-30T15:11:14;97220.00;;;23.08;51.74
9281;BME280;4679;47.966;7.958;2023-07-30T15:13:16;97221.75;;;23.12;51.57
9281;BME280;4679;47.966;7.958;2023-07-30T15:15:18;97216.41;;;23.42;50.87
9281;BME280;4679;47.966;7.958;2023-07-30T15:17:20;97216.72;;;23.40;51.20
9281;BME280;4679;47.966;7.958;2023-07-30T15:19:24;97224.41;;;23.30;51.28
9281;BME280;4679;47.966;7.958;2023-07-30T15:21:26;97210.50;;;23.48;51.20
9281;BME280;4679;47.966;7.958;2023-07-30T15:23:29;97211.72;;;23.13;51.43
9281;BME280;4679;47.966;7.958;2023-07-30T15:25:30;97207.13;;;22.96;51.70
9281;BME280;4679;47.966;7.958;2023-07-30T15:27:34;97204.28;;;22.93;51.72
9281;BME280;4679;47.966;7.958;2023-07-30T15:29:35;97204.44;;;22.96;51.60
9281;BME280;4679;47.966;7.958;2023-07-30T15:31:37;97197.09;;;22.97;51.51
9281;BME280;4679;47.966;7.958;2023-07-30T15:33:39;97203.31;;;23.06;51.30
9281;BME280;4679;47.966;7.958;2023-07-30T15:35:41;97200.25;;;23.07;51.48
9281;BME280;4679;47.966;7.958;2023-07-30T15:37:42;97201.16;;;23.37;51.04
9281;BME280;4679;47.966;7.958;2023-07-30T15:39:46;97202.69;;;23.56;50.64
9281;BME280;4679;47.966;7.958;2023-07-30T15:41:47;97199.00;;;23.60;50.52
9281;BME280;4679;47.966;7.958;2023-07-30T15:43:50;97201.56;;;23.57;50.40
9281;BME280;4679;47.966;7.958;2023-07-30T15:45:54;97208.41;;;23.63;50.39
9281;BME280;4679;47.966;7.958;2023-07-30T15:48:02;97207.00;;;23.48;50.52
9281;BME280;4679;47.966;7.958;2023-07-30T15:50:04;97205.16;;;23.31;50.68
9281;BME280;4679;47.966;7.958;2023-07-30T15:52:07;97203.06;;;23.28;50.58
9281;BME280;4679;47.966;7.958;2023-07-30T15:54:08;97209.00;;;23.13;50.61
9281;BME280;4679;47.966;7.958;2023-07-30T15:56:10;97205.53;;;23.04;50.76
9281;BME280;4679;47.966;7.958;2023-07-30T15:58:12;97203.63;;;23.04;50.86
9281;BME280;4679;47.966;7.958;2023-07-30T16:00:15;97204.72;;;23.12;50.69
9281;BME280;4679;47.966;7.958;2023-07-30T16:02:19;97203.56;;;23.30;50.25
9281;BME280;4679;47.966;7.958;2023-07-30T16:04:21;97208.00;;;23.35;50.41
9281;BME280;4679;47.966;7.958;2023-07-30T16:06:23;97211.03;;;23.33;50.20
9281;BME280;4679;47.966;7.958;2023-07-30T16:08:25;97200.97;;;23.42;49.96
9281;BME280;4679;47.966;7.958;2023-07-30T16:10:27;97201.59;;;23.48;49.90
9281;BME280;4679;47.966;7.958;2023-07-30T16:12:28;97199.84;;;23.52;49.84
9281;BME280;4679;47.966;7.958;2023-07-30T16:14:30;97204.59;;;23.55;49.73
9281;BME280;4679;47.966;7.958;2023-07-30T16:16:33;97208.59;;;23.49;49.78
9281;BME280;4679;47.966;7.958;2023-07-30T16:18:36;97208.94;;;23.39;49.66
9281;BME280;4679;47.966;7.958;2023-07-30T16:20:38;97213.44;;;23.35;49.84
9281;BME280;4679;47.966;7.958;2023-07-30T16:22:40;97207.34;;;23.38;49.58
9281;BME280;4679;47.966;7.958;2023-07-30T16:24:42;97208.47;;;23.37;49.54
9281;BME280;4679;47.966;7.958;2023-07-30T16:26:44;97209.09;;;23.42;49.54
9281;BME280;4679;47.966;7.958;2023-07-30T16:28:46;97200.81;;;23.39;49.57
9281;BME280;4679;47.966;7.958;2023-07-30T16:30:48;97201.91;;;23.38;49.59
9281;BME280;4679;47.966;7.958;2023-07-30T16:32:51;97208.34;;;23.33;49.54
9281;BME280;4679;47.966;7.958;2023-07-30T16:34:53;97208.47;;;23.37;49.61
9281;BME280;4679;47.966;7.958;2023-07-30T16:36:54;97205.66;;;23.16;49.82
9281;BME280;4679;47.966;7.958;2023-07-30T16:38:56;97202.66;;;23.09;49.88
9281;BME280;4679;47.966;7.958;2023-07-30T16:40:58;97211.59;;;22.92;49.98
9281;BME280;4679;47.966;7.958;2023-07-30T16:43:00;97214.47;;;22.78;50.04
9281;BME280;4679;47.966;7.958;2023-07-30T16:45:03;97208.88;;;22.66;50.26
9281;BME280;4679;47.966;7.958;2023-07-30T16:47:04;97207.63;;;22.64;50.25
9281;BME280;4679;47.966;7.958;2023-07-30T16:49:07;97210.63;;;22.62;50.34
9281;BME280;4679;47.966;7.958;2023-07-30T16:51:09;97212.41;;;22.58;50.15
9281;BME280;4679;47.966;7.958;2023-07-30T16:53:11;97204.44;;;22.53;50.31
9281;BME280;4679;47.966;7.958;2023-07-30T16:55:13;97211.28;;;22.51;50.13
9281;BME280;4679;47.966;7.958;2023-07-30T16:57:15;97207.16;;;22.53;50.07
9281;BME280;4679;47.966;7.958;2023-07-30T16:59:16;97209.53;;;22.55;49.98
9281;BME280;4679;47.966;7.958;2023-07-30T17:01:18;97216.22;;;22.49;50.10
9281;BME280;4679;47.966;7.958;2023-07-30T17:03:21;97212.38;;;22.50;50.09
9281;BME280;4679;47.966;7.958;2023-07-30T17:05:24;97214.78;;;22.51;50.21
9281;BME280;4679;47.966;7.958;2023-07-30T17:07:26;97220.19;;;22.51;50.42
9281;BME280;4679;47.966;7.958;2023-07-30T17:09:27;97227.34;;;22.56;50.15
9281;BME280;4679;47.966;7.958;2023-07-30T17:11:29;97224.03;;;22.59;50.32
9281;BME280;4679;47.966;7.958;2023-07-30T17:13:31;97229.59;;;22.45;50.31
9281;BME280;4679;47.966;7.958;2023-07-30T17:15:35;97234.31;;;22.31;50.39
9281;BME280;4679;47.966;7.958;2023-07-30T17:17:37;97221.91;;;22.21;50.56
9281;BME280;4679;47.966;7.958;2023-07-30T17:19:38;97222.84;;;22.17;50.79
9281;BME280;4679;47.966;7.958;2023-07-30T17:21:42;97227.47;;;22.16;50.74
9281;BME280;4679;47.966;7.958;2023-07-30T17:23:44;97225.72;;;22.12;50.71
9281;BME280;4679;47.966;7.958;2023-07-30T17:25:50;97225.91;;;22.15;50.61
9281;BME280;4679;47.966;7.958;2023-07-30T17:27:52;97226.66;;;22.16;50.93
9281;BME280;4679;47.966;7.958;2023-07-30T17:29:55;97228.25;;;22.17;50.98
9281;BME280;4679;47.966;7.958;2023-07-30T17:31:58;97238.28;;;22.16;50.70
9281;BME280;4679;47.966;7.958;2023-07-30T17:34:00;97235.25;;;22.09;51.01
9281;BME280;4679;47.966;7.958;2023-07-30T17:36:02;97234.72;;;21.98;51.20
9281;BME280;4679;47.966;7.958;2023-07-30T17:38:05;97238.38;;;21.94;51.06
9281;BME280;4679;47.966;7.958;2023-07-30T17:40:08;97233.94;;;21.98;51.08
9281;BME280;4679;47.966;7.958;2023-07-30T17:42:10;97231.22;;;21.98;50.89
9281;BME280;4679;47.966;7.958;2023-07-30T17:44:12;97238.38;;;21.94;50.82
9281;BME280;4679;47.966;7.958;2023-07-30T17:46:13;97240.72;;;21.87;50.84
9281;BME280;4679;47.966;7.958;2023-07-30T17:48:17;97249.47;;;21.84;51.10
9281;BME280;4679;47.966;7.958;2023-07-30T17:50:18;97243.53;;;21.73;51.30
9281;BME280;4679;47.966;7.958;2023-07-30T17:52:20;97247.94;;;21.60;51.32
9281;BME280;4679;47.966;7.958;2023-07-30T17:54:23;97250.00;;;21.63;51.30
9281;BME280;4679;47.966;7.958;2023-07-30T17:56:24;97257.63;;;21.61;51.31
9281;BME280;4679;47.966;7.958;2023-07-30T17:58:26;97267.16;;;21.59;51.54
9281;BME280;4679;47.966;7.958;2023-07-30T18:00:28;97266.22;;;21.63;51.36
9281;BME280;4679;47.966;7.958;2023-07-30T18:02:30;97268.63;;;21.65;51.61
9281;BME280;4679;47.966;7.958;2023-07-30T18:04:31;97260.63;;;21.60;51.47
9281;BME280;4679;47.966;7.958;2023-07-30T18:06:33;97260.31;;;21.61;51.43
9281;BME280;4679;47.966;7.958;2023-07-30T18:08:35;97262.53;;;21.59;51.81
9281;BME280;4679;47.966;7.958;2023-07-30T18:10:38;97255.41;;;21.63;51.61
9281;BME280;4679;47.966;7.958;2023-07-30T18:12:39;97258.72;;;21.60;51.83
9281;BME280;4679;47.966;7.958;2023-07-30T18:14:41;97255.53;;;21.58;52.07
9281;BME280;4679;47.966;7.958;2023-07-30T18:16:43;97258.06;;;21.55;51.93
9281;BME280;4679;47.966;7.958;2023-07-30T18:18:45;97270.00;;;21.54;52.21
9281;BME280;4679;47.966;7.958;2023-07-30T18:20:46;97263.00;;;21.53;52.16
9281;BME280;4679;47.966;7.958;2023-07-30T18:22:48;97266.63;;;21.48;52.25
9281;BME280;4679;47.966;7.958;2023-07-30T18:24:50;97271.97;;;21.39;52.48
9281;BME280;4679;47.966;7.958;2023-07-30T18:26:53;97279.72;;;21.32;52.94
9281;BME280;4679;47.966;7.958;2023-07-30T18:28:54;97276.66;;;21.25;52.62
9281;BME280;4679;47.966;7.958;2023-07-30T18:30:56;97273.00;;;21.21;52.89
9281;BME280;4679;47.966;7.958;2023-07-30T18:32:57;97273.88;;;21.17;53.06
9281;BME280;4679;47.966;7.958;2023-07-30T18:34:59;97267.97;;;21.15;52.84
9281;BME280;4679;47.966;7.958;2023-07-30T18:37:01;97263.69;;;21.14;52.84
9281;BME280;4679;47.966;7.958;2023-07-30T18:39:03;97270.00;;;21.09;53.12
9281;BME280;4679;47.966;7.958;2023-07-30T18:41:04;97266.03;;;21.06;53.38
9281;BME280;4679;47.966;7.958;2023-07-30T18:43:09;97267.44;;;21.04;52.94
9281;BME280;4679;47.966;7.958;2023-07-30T18:45:10;97268.84;;;21.01;53.32
9281;BME280;4679;47.966;7.958;2023-07-30T18:47:12;97273.44;;;21.01;53.47
9281;BME280;4679;47.966;7.958;2023-07-30T18:49:13;97264.97;;;20.94;53.48